Richland, Indiana
Current Conditions -  °F | °C
As of 9:56 AM on Monday 24 Nov 2014 (Local Time) from KOWB Reporting Station
Haze Haze  
Wind Chill: 36°   Ceiling: 2000
Heat Index: 45°   Visibility: 6mi
Dew Point: 40°   Wind: 23mph
Humidity: 82%   Direction: 270°W
Pressure: 29.64"   Gusts: 32mph
Location:  37.95°N, 87.17°W
Report Text: KOWB 241456Z 27020G28KT 6SM BR BKN020 OVC031 07/04 A2964 RMK AO2 51102 60003 T00720044 RAE13B41E55 P0000 PRESRR SLP036
Loading
Personal Weather Stations






























Interactive Weather Map New forecast layout! Learn more

10-Day Weather Forecast

Advertisements
Track Severe Weather on mobile